createdAt,value
2018-02-03T00:00:20.048Z,4.17
2018-02-03T00:02:47.547Z,4.20
2018-02-03T00:05:14.951Z,3.94
2018-02-03T00:07:42.342Z,3.81
2018-02-03T00:10:09.734Z,3.90
2018-02-03T00:12:37.138Z,4.01
2018-02-03T00:15:04.527Z,4.06
2018-02-03T00:17:31.951Z,4.14
2018-02-03T00:19:59.338Z,4.04
2018-02-03T00:22:26.737Z,4.26
2018-02-03T00:24:54.154Z,4.33
2018-02-03T00:27:21.563Z,4.38
2018-02-03T00:29:48.984Z,4.20
2018-02-03T00:32:16.382Z,4.08
2018-02-03T00:34:43.774Z,4.12
2018-02-03T00:37:11.220Z,3.97
2018-02-03T00:39:38.618Z,4.01
2018-02-03T00:42:06.004Z,3.98
2018-02-03T00:44:33.393Z,3.91
2018-02-03T00:47:00.830Z,3.87
2018-02-03T00:49:28.230Z,4.01
2018-02-03T00:51:55.722Z,3.90
2018-02-03T00:54:23.123Z,3.83
2018-02-03T00:56:50.530Z,3.75
2018-02-03T00:59:17.919Z,3.57
2018-02-03T01:01:45.327Z,3.52
2018-02-03T01:04:12.725Z,3.35
2018-02-03T01:06:40.133Z,3.36
2018-02-03T01:09:07.739Z,3.35
2018-02-03T01:11:35.175Z,3.38
2018-02-03T01:14:02.611Z,3.33
2018-02-03T01:16:30.230Z,3.36
2018-02-03T01:18:57.632Z,3.25
2018-02-03T01:21:25.063Z,3.23
2018-02-03T01:23:52.494Z,3.29
2018-02-03T01:26:19.894Z,3.27
2018-02-03T01:28:47.317Z,3.22
2018-02-03T01:31:14.797Z,3.20
2018-02-03T01:33:42.206Z,3.09
2018-02-03T01:36:09.679Z,3.16
2018-02-03T01:38:37.095Z,3.25
2018-02-03T01:41:04.506Z,3.16
2018-02-03T01:43:31.882Z,3.30
2018-02-03T01:45:59.289Z,3.32
2018-02-03T01:48:26.708Z,3.21
2018-02-03T01:50:54.202Z,3.44
2018-02-03T01:53:21.607Z,3.40
2018-02-03T01:55:49.002Z,3.44
2018-02-03T01:58:16.438Z,3.41
2018-02-03T02:00:43.858Z,3.35
2018-02-03T02:03:11.248Z,3.48
2018-02-03T02:05:38.654Z,3.33
2018-02-03T02:08:06.051Z,3.43
2018-02-03T02:10:33.477Z,3.19
2018-02-03T02:13:00.892Z,3.33
2018-02-03T02:15:28.282Z,3.17
2018-02-03T02:17:55.701Z,3.32
2018-02-03T02:20:23.123Z,3.21
2018-02-03T02:22:50.531Z,3.12
2018-02-03T02:25:17.923Z,3.15
2018-02-03T02:27:45.329Z,3.16
2018-02-03T02:30:12.710Z,3.25
2018-02-03T02:32:40.118Z,3.21
2018-02-03T02:35:07.619Z,3.23
2018-02-03T02:37:35.031Z,3.38
2018-02-03T02:40:02.435Z,3.42
2018-02-03T02:42:29.842Z,3.46
2018-02-03T02:44:57.247Z,3.60
2018-02-03T02:47:24.659Z,3.51
2018-02-03T02:49:52.055Z,3.43
2018-02-03T02:52:19.462Z,3.25
2018-02-03T02:54:46.861Z,3.23
2018-02-03T02:57:14.265Z,3.17
2018-02-03T02:59:41.642Z,3.15
2018-02-03T03:02:09.062Z,3.25
2018-02-03T03:04:36.460Z,3.32
2018-02-03T03:07:03.874Z,3.27
2018-02-03T03:09:31.267Z,3.36
2018-02-03T03:11:58.652Z,3.32
2018-02-03T03:14:26.104Z,3.29
2018-02-03T03:16:53.482Z,3.28
2018-02-03T03:19:20.905Z,3.35
2018-02-03T03:21:48.370Z,3.52
2018-02-03T03:24:15.793Z,3.53
2018-02-03T03:26:43.226Z,3.63
2018-02-03T03:29:10.611Z,3.52
2018-02-03T03:31:38.022Z,3.61
2018-02-03T03:34:05.471Z,3.52
2018-02-03T03:36:32.862Z,3.51
2018-02-03T03:39:00.346Z,3.56
2018-02-03T03:41:27.738Z,3.46
2018-02-03T03:43:55.229Z,3.30
2018-02-03T03:46:22.615Z,3.38
2018-02-03T03:48:50.122Z,3.42
2018-02-03T03:51:17.511Z,3.33
2018-02-03T03:53:44.953Z,3.29
2018-02-03T03:56:12.351Z,3.50
2018-02-03T03:58:39.848Z,3.51
2018-02-03T04:01:07.248Z,3.51
2018-02-03T04:03:34.677Z,3.49
2018-02-03T04:06:02.115Z,3.56
2018-02-03T04:08:29.518Z,3.64
2018-02-03T04:10:56.914Z,3.76
2018-02-03T04:13:24.325Z,3.83
2018-02-03T04:15:51.735Z,3.81
2018-02-03T04:18:19.127Z,3.94
2018-02-03T04:20:46.547Z,3.64
2018-02-03T04:23:13.946Z,3.75
2018-02-03T04:25:41.342Z,3.58
2018-02-03T04:28:08.744Z,3.66
2018-02-03T04:30:36.140Z,3.76
2018-02-03T04:33:03.530Z,3.69
2018-02-03T04:35:30.954Z,3.63
2018-02-03T04:37:58.557Z,3.55
2018-02-03T04:40:25.974Z,3.62
2018-02-03T04:42:53.345Z,3.71
2018-02-03T04:45:20.766Z,3.75
2018-02-03T04:47:48.166Z,3.65
2018-02-03T04:50:15.570Z,3.55
2018-02-03T04:52:42.969Z,3.46
2018-02-03T04:55:10.376Z,3.33
2018-02-03T04:57:37.767Z,3.26
2018-02-03T05:00:05.176Z,3.29
2018-02-03T05:02:32.566Z,3.42
2018-02-03T05:04:59.947Z,3.48
2018-02-03T05:07:27.346Z,3.42
2018-02-03T05:09:54.748Z,3.24
2018-02-03T05:12:22.149Z,3.24
2018-02-03T05:14:49.538Z,3.36
2018-02-03T05:17:17.279Z,3.36
2018-02-03T05:19:44.677Z,3.47
2018-02-03T05:22:12.068Z,3.48
2018-02-03T05:24:39.471Z,3.50
2018-02-03T05:27:06.933Z,3.61
2018-02-03T05:29:34.319Z,3.62
2018-02-03T05:32:01.714Z,3.75
2018-02-03T05:34:29.108Z,3.65
2018-02-03T05:36:56.518Z,3.56
2018-02-03T05:39:23.921Z,3.58
2018-02-03T05:41:51.316Z,3.44
2018-02-03T05:44:21.970Z,3.54
2018-02-03T05:46:49.368Z,3.54
2018-02-03T05:49:16.754Z,3.54
2018-02-03T05:51:44.253Z,3.63
2018-02-03T05:54:11.638Z,3.66
2018-02-03T05:56:39.052Z,3.68
2018-02-03T05:59:06.513Z,3.51
2018-02-03T06:01:33.936Z,3.45
2018-02-03T06:04:01.335Z,3.40
2018-02-03T06:06:28.849Z,3.60
2018-02-03T06:08:56.237Z,3.76
2018-02-03T06:11:23.631Z,3.56
2018-02-03T06:13:51.034Z,3.11
2018-02-03T06:16:18.427Z,3.31
2018-02-03T06:18:45.847Z,3.31
2018-02-03T06:21:13.242Z,3.30
2018-02-03T06:23:40.647Z,3.42
2018-02-03T06:26:08.034Z,3.53
2018-02-03T06:28:35.443Z,3.62
2018-02-03T06:31:02.975Z,3.47
2018-02-03T06:33:30.382Z,3.56
2018-02-03T06:35:57.772Z,3.53
2018-02-03T06:38:25.195Z,3.51
2018-02-03T06:40:52.599Z,3.62
2018-02-03T06:43:20.022Z,3.72
2018-02-03T06:45:47.419Z,3.83
2018-02-03T06:48:14.842Z,3.76
2018-02-03T06:50:42.246Z,3.70
2018-02-03T06:53:09.634Z,3.81
2018-02-03T06:55:37.025Z,3.88
2018-02-03T06:58:04.450Z,3.98
2018-02-03T07:00:31.867Z,4.01
2018-02-03T07:02:59.262Z,4.06
2018-02-03T07:05:26.677Z,4.16
2018-02-03T07:07:54.107Z,4.25
2018-02-03T07:10:21.495Z,4.24
2018-02-03T07:12:48.889Z,4.26
2018-02-03T07:15:16.290Z,4.23
2018-02-03T07:17:43.691Z,4.31
2018-02-03T07:20:11.078Z,4.43
2018-02-03T07:22:38.622Z,4.49
2018-02-03T07:25:06.042Z,4.55
2018-02-03T07:27:33.443Z,4.64
2018-02-03T07:30:00.863Z,4.67
2018-02-03T07:32:28.274Z,4.76
2018-02-03T07:34:55.693Z,4.87
2018-02-03T07:37:23.082Z,4.95
2018-02-03T07:39:50.477Z,4.95
2018-02-03T07:42:17.867Z,4.86
2018-02-03T07:44:45.340Z,4.90
2018-02-03T07:47:12.733Z,4.94
2018-02-03T07:49:40.171Z,4.94
2018-02-03T07:52:07.561Z,4.97
2018-02-03T07:54:34.951Z,4.99
2018-02-03T07:57:02.357Z,5.04
2018-02-03T07:59:29.741Z,5.06
2018-02-03T08:01:57.148Z,4.89
2018-02-03T08:04:24.535Z,4.91
2018-02-03T08:06:51.935Z,4.97
2018-02-03T08:09:19.322Z,4.86
2018-02-03T08:11:47.780Z,4.65
2018-02-03T08:14:15.239Z,4.60
2018-02-03T08:16:42.742Z,4.57
2018-02-03T08:19:10.139Z,4.74
2018-02-03T08:21:37.551Z,4.56
2018-02-03T08:24:04.948Z,4.36
2018-02-03T08:26:32.346Z,4.16
2018-02-03T08:29:00.716Z,4.27
2018-02-03T08:31:29.987Z,4.20
2018-02-03T08:33:57.522Z,4.14
2018-02-03T08:36:24.935Z,3.81
2018-02-03T08:38:52.323Z,4.04
2018-02-03T08:41:19.724Z,4.08
2018-02-03T08:43:47.124Z,4.34
2018-02-03T08:46:14.532Z,4.28
2018-02-03T08:48:41.906Z,3.97
2018-02-03T08:51:09.322Z,3.83
2018-02-03T08:53:36.718Z,3.87
2018-02-03T08:56:04.127Z,3.99
2018-02-03T08:58:31.566Z,4.05
2018-02-03T09:00:58.991Z,4.19
2018-02-03T09:03:26.379Z,4.23
2018-02-03T09:05:53.762Z,4.37
2018-02-03T09:08:21.176Z,4.44
2018-02-03T09:10:48.574Z,4.46
2018-02-03T09:13:15.979Z,4.56
2018-02-03T09:15:43.374Z,4.53
2018-02-03T09:18:10.776Z,4.45
2018-02-03T09:20:38.185Z,4.26
2018-02-03T09:23:05.574Z,3.93
2018-02-03T09:25:32.979Z,3.90
2018-02-03T09:28:00.426Z,3.83
2018-02-03T09:30:27.812Z,3.68
2018-02-03T09:32:55.223Z,3.68
2018-02-03T09:35:22.602Z,3.58
2018-02-03T09:37:50.023Z,4.03
2018-02-03T09:40:17.399Z,4.67
2018-02-03T09:42:44.823Z,5.34
2018-02-03T09:45:12.236Z,5.67
2018-02-03T09:47:39.658Z,5.69
2018-02-03T09:50:07.047Z,5.84
2018-02-03T09:52:34.452Z,5.56
2018-02-03T09:55:01.894Z,5.60
2018-02-03T09:57:29.282Z,5.72
2018-02-03T09:59:56.678Z,5.53
2018-02-03T10:02:24.078Z,5.14
2018-02-03T10:04:51.483Z,5.27
2018-02-03T10:07:18.963Z,4.67
2018-02-03T10:09:46.382Z,4.96
2018-02-03T10:12:13.783Z,5.09
2018-02-03T10:14:41.200Z,5.23
2018-02-03T10:17:08.567Z,5.32
2018-02-03T10:19:35.958Z,5.54
2018-02-03T10:22:03.333Z,5.45
2018-02-03T10:24:30.723Z,5.58
2018-02-03T10:26:58.109Z,5.77
2018-02-03T10:29:25.498Z,5.77
2018-02-03T10:31:52.933Z,5.92
2018-02-03T10:34:20.273Z,5.68
2018-02-03T10:36:47.662Z,5.30
2018-02-03T10:39:15.071Z,5.50
2018-02-03T10:41:42.467Z,5.43
2018-02-03T10:44:09.845Z,5.51
2018-02-03T10:46:37.314Z,5.47
2018-02-03T10:49:04.700Z,5.56
2018-02-03T10:51:32.089Z,5.53
2018-02-03T10:53:59.482Z,5.54
2018-02-03T10:56:26.946Z,5.23
2018-02-03T10:58:54.334Z,4.96
2018-02-03T11:01:21.727Z,4.85
2018-02-03T11:03:49.112Z,4.47
2018-02-03T11:06:16.512Z,4.20
2018-02-03T11:08:43.919Z,4.06
2018-02-03T11:11:11.302Z,4.13
2018-02-03T11:13:38.715Z,4.09
2018-02-03T11:16:06.106Z,4.04
2018-02-03T11:18:33.494Z,4.15
2018-02-03T11:21:00.895Z,4.22
2018-02-03T11:23:28.279Z,4.10
2018-02-03T11:25:55.673Z,3.84
2018-02-03T11:28:23.132Z,3.81
2018-02-03T11:30:50.637Z,3.79
2018-02-03T11:33:18.022Z,3.89
2018-02-03T11:35:45.416Z,4.11
2018-02-03T11:38:12.807Z,4.18
2018-02-03T11:40:40.191Z,4.34
2018-02-03T11:43:07.601Z,4.34
2018-02-03T11:45:34.978Z,4.37
2018-02-03T11:48:02.410Z,4.47
2018-02-03T11:50:29.818Z,4.75
2018-02-03T11:52:57.193Z,4.90
2018-02-03T11:55:24.591Z,4.71
2018-02-03T11:57:51.979Z,4.74
2018-02-03T12:00:19.385Z,4.51
2018-02-03T12:02:46.831Z,4.19
2018-02-03T12:05:14.206Z,4.22
2018-02-03T12:07:41.620Z,4.05
2018-02-03T12:10:09.008Z,4.33
2018-02-03T12:12:36.390Z,4.40
2018-02-03T12:15:03.786Z,4.37
2018-02-03T12:17:31.181Z,4.33
2018-02-03T12:19:58.554Z,4.23
2018-02-03T12:22:26.051Z,4.54
2018-02-03T12:24:53.522Z,4.82
2018-02-03T12:27:20.915Z,4.76
2018-02-03T12:29:48.394Z,4.66
2018-02-03T12:32:15.875Z,4.70
2018-02-03T12:34:44.070Z,4.68
2018-02-03T12:37:11.446Z,4.61
2018-02-03T12:39:38.833Z,4.56
2018-02-03T12:42:06.219Z,4.52
2018-02-03T12:44:33.617Z,4.48
2018-02-03T12:47:00.994Z,4.44
2018-02-03T12:49:28.411Z,4.48
2018-02-03T12:51:55.791Z,4.57
2018-02-03T12:54:23.265Z,4.52
2018-02-03T12:56:50.652Z,4.72
2018-02-03T12:59:18.057Z,4.61
2018-02-03T13:01:45.459Z,4.32
2018-02-03T13:04:12.862Z,4.35
2018-02-03T13:06:40.262Z,4.45
2018-02-03T13:09:07.683Z,4.53
2018-02-03T13:11:35.063Z,4.43
2018-02-03T13:14:02.466Z,4.28
2018-02-03T13:16:29.854Z,4.15
2018-02-03T13:18:57.326Z,4.19
2018-02-03T13:21:24.718Z,4.12
2018-02-03T13:23:52.116Z,4.02
2018-02-03T13:26:19.523Z,4.05
2018-02-03T13:28:46.914Z,4.00
2018-02-03T13:31:14.411Z,3.91
2018-02-03T13:33:41.791Z,3.99
2018-02-03T13:36:09.191Z,3.94
2018-02-03T13:38:36.674Z,3.98
2018-02-03T13:41:04.045Z,4.18
2018-02-03T13:43:31.443Z,4.26
2018-02-03T13:45:58.838Z,4.37
2018-02-03T13:48:26.238Z,4.27
2018-02-03T13:50:53.614Z,4.01
2018-02-03T13:53:21.018Z,3.97
2018-02-03T13:55:48.428Z,3.86
2018-02-03T13:58:15.817Z,3.73
2018-02-03T14:00:43.205Z,3.89
2018-02-03T14:03:10.603Z,3.87
2018-02-03T14:05:38.015Z,4.01
2018-02-03T14:08:06.166Z,4.06
2018-02-03T14:10:34.081Z,4.08
2018-02-03T14:13:01.474Z,4.17
2018-02-03T14:15:28.929Z,4.03
2018-02-03T14:17:56.379Z,3.99
2018-02-03T14:20:23.850Z,3.92
2018-02-03T14:22:51.235Z,4.02
2018-02-03T14:25:18.618Z,4.04
2018-02-03T14:27:46.019Z,3.91
2018-02-03T14:30:13.458Z,3.70
2018-02-03T14:32:40.842Z,3.77
2018-02-03T14:35:08.248Z,3.67
2018-02-03T14:37:35.635Z,3.67
2018-02-03T14:40:03.046Z,3.68
2018-02-03T14:42:30.434Z,3.86
2018-02-03T14:44:57.829Z,3.67
2018-02-03T14:47:25.206Z,3.75
2018-02-03T14:49:52.606Z,3.60
2018-02-03T14:52:19.994Z,3.47
2018-02-03T14:54:47.431Z,3.69
2018-02-03T14:57:14.835Z,3.74
2018-02-03T14:59:42.447Z,3.84
2018-02-03T15:02:09.877Z,3.72
2018-02-03T15:04:37.452Z,3.74
2018-02-03T15:07:04.925Z,3.79
2018-02-03T15:09:32.296Z,3.67
2018-02-03T15:11:59.718Z,3.69
2018-02-03T15:14:27.102Z,3.69
2018-02-03T15:16:54.490Z,3.40
2018-02-03T15:19:21.935Z,3.13
2018-02-03T15:21:49.310Z,2.98
2018-02-03T15:24:16.751Z,2.96
2018-02-03T15:26:44.266Z,2.99
2018-02-03T15:29:11.642Z,3.03
2018-02-03T15:31:39.045Z,2.96
2018-02-03T15:34:06.422Z,2.84
2018-02-03T15:36:33.851Z,2.62
2018-02-03T15:39:01.337Z,2.73
2018-02-03T15:41:28.732Z,2.61
2018-02-03T15:43:56.155Z,2.64
2018-02-03T15:46:23.545Z,2.71
2018-02-03T15:48:50.921Z,2.63
2018-02-03T15:51:18.367Z,2.43
2018-02-03T15:53:45.743Z,2.50
2018-02-03T15:56:13.155Z,2.54
2018-02-03T15:58:40.542Z,2.52
2018-02-03T16:01:08.028Z,2.66
2018-02-03T16:03:35.411Z,2.59
2018-02-03T16:06:02.810Z,2.59
2018-02-03T16:08:30.223Z,2.58
2018-02-03T16:10:57.600Z,2.48
2018-02-03T16:13:25.000Z,2.33
2018-02-03T16:15:52.396Z,2.22
2018-02-03T16:18:19.803Z,2.48
2018-02-03T16:20:47.224Z,2.67
2018-02-03T16:23:14.616Z,2.72
2018-02-03T16:25:42.002Z,2.58
2018-02-03T16:28:09.412Z,2.60
2018-02-03T16:30:36.875Z,2.73
2018-02-03T16:33:04.266Z,2.68
2018-02-03T16:35:31.641Z,2.77
2018-02-03T16:37:59.082Z,2.81
2018-02-03T16:40:26.466Z,2.63
2018-02-03T16:42:53.876Z,2.73
2018-02-03T16:45:21.450Z,2.41
2018-02-03T16:47:48.850Z,2.51
2018-02-03T16:50:16.254Z,2.75
2018-02-03T16:52:43.646Z,2.50
2018-02-03T16:55:11.035Z,2.53
2018-02-03T16:57:38.458Z,2.56
2018-02-03T17:00:05.938Z,2.36
2018-02-03T17:02:33.308Z,2.50
2018-02-03T17:05:00.739Z,2.67
2018-02-03T17:07:28.214Z,2.53
2018-02-03T17:09:55.605Z,2.34
2018-02-03T17:12:23.002Z,2.36
2018-02-03T17:14:50.428Z,2.48
2018-02-03T17:17:17.814Z,2.28
2018-02-03T17:19:45.208Z,2.23
2018-02-03T17:22:12.602Z,2.16
2018-02-03T17:24:40.008Z,1.91
2018-02-03T17:27:07.416Z,1.74
2018-02-03T17:29:34.794Z,1.73
2018-02-03T17:32:02.195Z,1.84
2018-02-03T17:34:29.607Z,1.84
2018-02-03T17:37:02.694Z,1.85
2018-02-03T17:39:30.103Z,1.88
2018-02-03T17:41:57.491Z,1.89
2018-02-03T17:44:24.907Z,1.79
2018-02-03T17:46:58.043Z,1.79
2018-02-03T17:49:25.451Z,1.80
2018-02-03T17:51:52.845Z,1.83
2018-02-03T17:54:20.799Z,1.93
2018-02-03T17:56:53.897Z,1.75
2018-02-03T17:59:21.287Z,1.67
2018-02-03T18:01:48.675Z,1.68
2018-02-03T18:04:16.087Z,1.53
2018-02-03T18:06:49.046Z,1.38
2018-02-03T18:09:16.463Z,1.51
2018-02-03T18:11:44.014Z,1.54
2018-02-03T18:14:11.412Z,1.50
2018-02-03T18:16:38.820Z,1.68
2018-02-03T18:19:06.186Z,1.54
2018-02-03T18:21:33.607Z,1.51
2018-02-03T18:24:00.994Z,1.45
2018-02-03T18:26:28.407Z,1.37
2018-02-03T18:28:55.805Z,1.35
2018-02-03T18:31:23.194Z,1.35
2018-02-03T18:33:50.610Z,1.10
2018-02-03T18:38:42.374Z,1.22
2018-02-03T18:41:09.777Z,1.20
2018-02-03T18:43:37.167Z,1.16
2018-02-03T18:46:04.586Z,1.38
2018-02-03T18:48:31.973Z,1.37
2018-02-03T18:50:59.450Z,1.17
2018-02-03T18:53:26.831Z,1.10
2018-02-03T18:55:54.213Z,1.01
2018-02-03T18:58:21.600Z,1.03
2018-02-03T19:00:48.990Z,1.18
2018-02-03T19:03:16.394Z,1.25
2018-02-03T19:05:43.807Z,1.23
2018-02-03T19:08:11.181Z,1.02
2018-02-03T19:10:38.566Z,1.15
2018-02-03T19:13:05.982Z,1.15
2018-02-03T19:15:33.384Z,1.27
2018-02-03T19:18:00.795Z,1.16
2018-02-03T19:20:28.283Z,1.05
2018-02-03T19:22:55.675Z,1.12
2018-02-03T19:25:23.070Z,1.12
2018-02-03T19:27:50.474Z,1.20
2018-02-03T19:30:17.871Z,0.95
2018-02-03T19:32:45.271Z,1.06
2018-02-03T19:35:12.663Z,1.02
2018-02-03T19:37:40.055Z,0.87
2018-02-03T19:40:07.442Z,0.95
2018-02-03T19:42:34.831Z,0.98
2018-02-03T19:45:02.226Z,1.00
2018-02-03T19:47:29.616Z,0.92
2018-02-03T19:49:57.011Z,0.87
2018-02-03T19:52:24.434Z,0.67
2018-02-03T19:54:51.831Z,0.86
2018-02-03T19:57:19.234Z,0.80
2018-02-03T19:59:46.610Z,0.88
2018-02-03T20:02:14.026Z,0.76
2018-02-03T20:04:41.408Z,0.68
2018-02-03T20:07:08.811Z,0.72
2018-02-03T20:09:36.221Z,0.72
2018-02-03T20:12:03.597Z,0.90
2018-02-03T20:14:30.990Z,0.80
2018-02-03T20:16:58.382Z,0.69
2018-02-03T20:19:25.775Z,0.56
2018-02-03T20:21:53.187Z,0.59
2018-02-03T20:24:20.599Z,0.79
2018-02-03T20:26:47.986Z,0.77
2018-02-03T20:29:15.386Z,0.91
2018-02-03T20:31:42.790Z,0.89
2018-02-03T20:34:10.235Z,0.83
2018-02-03T20:36:37.615Z,0.74
2018-02-03T20:39:05.010Z,0.67
2018-02-03T20:41:32.423Z,0.74
2018-02-03T20:43:59.792Z,0.72
2018-02-03T20:46:27.201Z,0.73
2018-02-03T20:48:54.607Z,0.80
2018-02-03T20:51:21.991Z,0.79
2018-02-03T20:53:49.394Z,0.77
2018-02-03T20:56:16.785Z,0.81
2018-02-03T20:58:44.157Z,0.59
2018-02-03T21:01:11.647Z,0.56
2018-02-03T21:03:39.067Z,0.54
2018-02-03T21:06:06.463Z,0.69
2018-02-03T21:08:33.853Z,0.70
2018-02-03T21:11:01.266Z,0.59
2018-02-03T21:13:28.658Z,0.56
2018-02-03T21:15:56.055Z,0.63
2018-02-03T21:18:23.455Z,0.51
2018-02-03T21:20:50.871Z,0.53
2018-02-03T21:23:18.279Z,0.53
2018-02-03T21:25:45.683Z,0.66
2018-02-03T21:28:13.130Z,0.87
2018-02-03T21:30:40.559Z,1.10
2018-02-03T21:33:07.955Z,1.00
2018-02-03T21:35:35.406Z,1.20
2018-02-03T21:38:02.786Z,1.12
2018-02-03T21:40:30.240Z,0.96
2018-02-03T21:42:57.635Z,1.06
2018-02-03T21:45:25.049Z,1.00
2018-02-03T21:47:52.429Z,0.96
2018-02-03T21:50:19.855Z,0.84
2018-02-03T21:52:47.254Z,0.83
2018-02-03T21:55:14.639Z,0.71
2018-02-03T21:57:42.029Z,0.81
2018-02-03T22:00:09.431Z,0.97
2018-02-03T22:02:36.845Z,0.61
2018-02-03T22:05:04.238Z,0.51
2018-02-03T22:07:32.322Z,0.60
2018-02-03T22:09:59.711Z,0.56
2018-02-03T22:12:27.106Z,0.60
2018-02-03T22:14:54.518Z,0.74
2018-02-03T22:17:21.915Z,0.73
2018-02-03T22:19:49.320Z,0.84
2018-02-03T22:22:16.734Z,0.82
2018-02-03T22:24:44.138Z,0.53
2018-02-03T22:27:11.520Z,0.54
2018-02-03T22:29:38.947Z,0.61
2018-02-03T22:32:06.522Z,0.64
2018-02-03T22:34:33.909Z,0.82
2018-02-03T22:37:01.332Z,0.83
2018-02-03T22:39:28.784Z,0.69
2018-02-03T22:41:56.193Z,0.72
2018-02-03T22:44:23.597Z,0.89
2018-02-03T22:46:51.007Z,0.77
2018-02-03T22:49:18.395Z,0.58
2018-02-03T22:51:45.827Z,0.47
2018-02-03T22:54:13.285Z,0.64
2018-02-03T22:56:40.666Z,0.59
2018-02-03T22:59:08.062Z,0.57
2018-02-03T23:01:35.555Z,0.57
2018-02-03T23:04:02.945Z,0.49
2018-02-03T23:06:30.343Z,0.41
2018-02-03T23:08:57.790Z,0.46
2018-02-03T23:11:25.177Z,0.47
2018-02-03T23:13:52.567Z,0.47
2018-02-03T23:16:19.958Z,0.36
2018-02-03T23:18:47.367Z,0.35
2018-02-03T23:21:14.782Z,0.11
2018-02-03T23:23:42.198Z,0.18
2018-02-03T23:26:09.614Z,0.17
2018-02-03T23:28:37.031Z,0.20
2018-02-03T23:31:04.422Z,0.18
2018-02-03T23:33:31.838Z,0.28
2018-02-03T23:35:59.226Z,0.19
2018-02-03T23:38:26.625Z,0.32
2018-02-03T23:40:54.031Z,0.43
2018-02-03T23:43:21.429Z,0.66
2018-02-03T23:45:48.833Z,0.72
2018-02-03T23:48:16.231Z,0.74
2018-02-03T23:50:43.707Z,0.77
2018-02-03T23:53:11.118Z,0.67
2018-02-03T23:55:38.544Z,0.71
2018-02-03T23:58:05.980Z,0.62
